Time;durP1;ratioP1;P1;durP2;ratioP2;P2;SDS_P1;SDS_P2;PMS_P1;PMS_P2;Temp;Humidity;BMP_temperature;BMP_pressure;BME280_temperature;BME280_humidity;BME280_pressure;Samples;Min_cycle;Max_cycle;Signal;HPM_P1;HPM_P2
2023/12/19 00:00:59;;;;;;;45.83;23.23;;;;;;;;;;5017077;28;20844;-70
2023/12/19 00:03:24;;;;;;;46.40;21.83;;;;;;;;;;4999846;28;20214;-70
2023/12/19 00:05:50;;;;;;;55.07;23.50;;;;;;;;;;4997495;28;20219;-70
2023/12/19 00:08:15;;;;;;;54.57;23.67;;;;;;;;;;4996511;28;20225;-70
2023/12/19 00:10:42;;;;;;;45.87;22.50;;;;;;;;;;5004419;28;20240;-70
2023/12/19 00:13:07;;;;;;;54.07;22.47;;;;;;;;;;5000644;28;20853;-70
2023/12/19 00:15:32;;;;;;;46.23;23.90;;;;;;;;;;5002304;28;20332;-71
2023/12/19 00:17:58;;;;;;;45.73;22.53;;;;;;;;;;5004044;28;20205;-70
2023/12/19 00:20:23;;;;;;;51.43;23.10;;;;;;;;;;5003827;28;20269;-70
2023/12/19 00:22:48;;;;;;;51.47;24.13;;;;;;;;;;5004836;28;20202;-70
2023/12/19 00:25:13;;;;;;;51.33;23.97;;;;;;;;;;5003312;28;20171;-71
2023/12/19 00:27:38;;;;;;;53.33;25.90;;;;;;;;;;5002239;28;20908;-70
2023/12/19 00:30:04;;;;;;;50.83;24.77;;;;;;;;;;4994154;28;20685;-70
2023/12/19 00:32:29;;;;;;;49.60;23.37;;;;;;;;;;4989638;28;20277;-70
2023/12/19 00:34:54;;;;;;;58.63;26.53;;;;;;;;;;4988152;28;20187;-71
2023/12/19 00:37:19;;;;;;;51.70;24.70;;;;;;;;;;4997228;28;20828;-70
2023/12/19 00:39:45;;;;;;;47.80;23.23;;;;;;;;;;5008294;28;20229;-70
2023/12/19 00:42:10;;;;;;;55.83;25.70;;;;;;;;;;4993666;28;20187;-71
2023/12/19 00:44:38;;;;;;;57.13;24.63;;;;;;;;;;4989893;28;20191;-72
2023/12/19 00:47:04;;;;;;;52.80;25.83;;;;;;;;;;4985444;28;20215;-69
2023/12/19 00:49:29;;;;;;;53.40;25.13;;;;;;;;;;4995033;28;20194;-68
2023/12/19 00:51:54;;;;;;;47.70;23.87;;;;;;;;;;4988912;28;20195;-68
2023/12/19 00:54:20;;;;;;;55.00;25.53;;;;;;;;;;5002389;28;20206;-66
2023/12/19 00:56:45;;;;;;;58.33;24.40;;;;;;;;;;5005980;28;20635;-68
2023/12/19 00:59:10;;;;;;;56.73;25.40;;;;;;;;;;5004737;28;20201;-67
2023/12/19 01:01:35;;;;;;;60.80;26.23;;;;;;;;;;5003794;28;20183;-67
2023/12/19 01:04:00;;;;;;;57.93;24.20;;;;;;;;;;5002480;28;20215;-68
2023/12/19 01:06:26;;;;;;;49.20;24.03;;;;;;;;;;5000767;28;20228;-67
2023/12/19 01:08:53;;;;;;;51.87;24.20;;;;;;;;;;5002287;28;20221;-68
2023/12/19 01:11:18;;;;;;;51.30;24.33;;;;;;;;;;5010036;28;20183;-68
2023/12/19 01:13:43;;;;;;;43.33;22.17;;;;;;;;;;5003888;28;20253;-69
2023/12/19 01:16:08;;;;;;;48.27;23.13;;;;;;;;;;5014720;28;20251;-67
2023/12/19 01:18:34;;;;;;;50.90;23.97;;;;;;;;;;5017414;28;20205;-69
2023/12/19 01:20:59;;;;;;;55.33;25.03;;;;;;;;;;5012914;28;20713;-69
2023/12/19 01:23:25;;;;;;;55.77;25.80;;;;;;;;;;5013774;28;20646;-68
2023/12/19 01:25:50;;;;;;;61.03;27.53;;;;;;;;;;5005918;28;20198;-69
2023/12/19 01:28:15;;;;;;;54.27;24.70;;;;;;;;;;5012551;28;20186;-69
2023/12/19 01:30:41;;;;;;;50.17;24.97;;;;;;;;;;5010747;28;20662;-68
2023/12/19 01:33:09;;;;;;;48.10;24.77;;;;;;;;;;5005751;28;20265;-68
2023/12/19 01:35:35;;;;;;;47.63;24.63;;;;;;;;;;5011806;28;20198;-68
2023/12/19 01:38:00;;;;;;;53.17;26.30;;;;;;;;;;5009278;28;20321;-68
2023/12/19 01:40:26;;;;;;;55.63;24.13;;;;;;;;;;5010214;28;20912;-67
2023/12/19 01:42:51;;;;;;;54.33;25.80;;;;;;;;;;5007327;28;20735;-68
2023/12/19 01:45:17;;;;;;;47.47;25.03;;;;;;;;;;5009539;28;20187;-68
2023/12/19 01:47:44;;;;;;;54.73;26.33;;;;;;;;;;5017436;28;20186;-67
2023/12/19 01:50:10;;;;;;;58.13;24.83;;;;;;;;;;5008784;28;20553;-67
2023/12/19 01:52:38;;;;;;;51.07;25.47;;;;;;;;;;5008506;28;20179;-68
2023/12/19 01:55:03;;;;;;;47.57;24.57;;;;;;;;;;5012357;28;20202;-67
2023/12/19 01:57:29;;;;;;;49.27;26.03;;;;;;;;;;5009942;28;20658;-68
2023/12/19 01:59:54;;;;;;;56.77;25.20;;;;;;;;;;5011451;28;20183;-69
2023/12/19 02:02:19;;;;;;;53.43;25.27;;;;;;;;;;5006134;28;20174;-68
2023/12/19 02:04:44;;;;;;;52.87;25.07;;;;;;;;;;5009054;28;20193;-69
2023/12/19 02:07:10;;;;;;;54.70;25.33;;;;;;;;;;5010870;28;20286;-68
2023/12/19 02:09:35;;;;;;;51.50;25.27;;;;;;;;;;5011158;28;20598;-68
2023/12/19 02:12:01;;;;;;;61.87;25.90;;;;;;;;;;5002993;28;20517;-67
2023/12/19 02:14:26;;;;;;;63.40;26.77;;;;;;;;;;5009072;28;20214;-68
2023/12/19 02:16:51;;;;;;;59.87;26.17;;;;;;;;;;5014403;28;20207;-68
2023/12/19 02:19:16;;;;;;;55.47;25.83;;;;;;;;;;5013285;28;20225;-69
2023/12/19 02:21:42;;;;;;;53.03;25.90;;;;;;;;;;5012577;28;22978;-67
2023/12/19 02:24:07;;;;;;;50.87;25.23;;;;;;;;;;5011984;28;20198;-68
2023/12/19 02:26:33;;;;;;;46.50;25.13;;;;;;;;;;5013136;28;20211;-67
2023/12/19 02:28:59;;;;;;;52.20;25.27;;;;;;;;;;5012484;28;20183;-68
2023/12/19 02:31:24;;;;;;;47.57;23.87;;;;;;;;;;5013656;28;20390;-69
2023/12/19 02:33:49;;;;;;;48.30;25.33;;;;;;;;;;5009229;28;20265;-68
2023/12/19 02:36:15;;;;;;;52.27;25.17;;;;;;;;;;5006916;28;20207;-68
2023/12/19 02:38:40;;;;;;;49.03;24.57;;;;;;;;;;5011213;28;20183;-68
2023/12/19 02:41:07;;;;;;;48.30;25.23;;;;;;;;;;5007379;28;20183;-67
2023/12/19 02:43:34;;;;;;;50.13;23.47;;;;;;;;;;5005213;28;20206;-68
2023/12/19 02:45:59;;;;;;;46.03;23.93;;;;;;;;;;5012515;28;20655;-69
2023/12/19 02:48:24;;;;;;;54.43;23.90;;;;;;;;;;5011670;28;20228;-68
2023/12/19 02:50:49;;;;;;;55.83;25.10;;;;;;;;;;5012750;28;20179;-68
2023/12/19 02:53:14;;;;;;;49.27;23.53;;;;;;;;;;5006697;28;20190;-69
2023/12/19 02:55:41;;;;;;;51.30;24.60;;;;;;;;;;5008035;28;20709;-68
2023/12/19 02:58:07;;;;;;;53.50;24.97;;;;;;;;;;5017250;28;20178;-69
2023/12/19 03:00:32;;;;;;;39.53;24.30;;;;;;;;;;5017030;28;20268;-69
2023/12/19 03:02:58;;;;;;;51.87;25.47;;;;;;;;;;5012546;28;20671;-67
2023/12/19 03:05:24;;;;;;;48.83;24.13;;;;;;;;;;5015730;28;20493;-69
2023/12/19 03:07:49;;;;;;;46.67;25.00;;;;;;;;;;5018370;28;20186;-68
2023/12/19 03:10:14;;;;;;;45.13;23.40;;;;;;;;;;5018502;28;20183;-67
2023/12/19 03:12:39;;;;;;;44.27;22.03;;;;;;;;;;5020603;28;20212;-67
2023/12/19 03:15:05;;;;;;;47.73;23.40;;;;;;;;;;5012536;28;20191;-69
2023/12/19 03:17:31;;;;;;;48.47;24.30;;;;;;;;;;5013440;28;20262;-68
2023/12/19 03:19:56;;;;;;;44.50;23.47;;;;;;;;;;5010338;28;20187;-68
2023/12/19 03:22:21;;;;;;;45.17;22.77;;;;;;;;;;5016546;28;20659;-68
2023/12/19 03:24:46;;;;;;;50.93;22.97;;;;;;;;;;5019033;28;20261;-68
2023/12/19 03:27:11;;;;;;;41.67;23.43;;;;;;;;;;5011832;28;20640;-68
2023/12/19 03:29:37;;;;;;;44.67;22.57;;;;;;;;;;5017552;28;20258;-68
2023/12/19 03:32:03;;;;;;;44.80;22.13;;;;;;;;;;5017143;28;20179;-69
2023/12/19 03:34:28;;;;;;;44.43;22.20;;;;;;;;;;5016420;28;20566;-68
2023/12/19 03:36:53;;;;;;;47.03;21.30;;;;;;;;;;5008457;28;20704;-68
2023/12/19 03:39:18;;;;;;;40.03;22.37;;;;;;;;;;5010843;28;20542;-68
2023/12/19 03:41:44;;;;;;;36.73;20.73;;;;;;;;;;5015067;28;20191;-69
2023/12/19 03:44:09;;;;;;;42.30;21.90;;;;;;;;;;5009417;28;22006;-69
2023/12/19 03:46:34;;;;;;;41.50;20.43;;;;;;;;;;5015380;28;20213;-68
2023/12/19 03:48:59;;;;;;;32.97;19.57;;;;;;;;;;5014818;28;20209;-69
2023/12/19 03:51:25;;;;;;;44.77;20.10;;;;;;;;;;5015461;28;20179;-68
2023/12/19 03:53:50;;;;;;;37.57;19.23;;;;;;;;;;5015836;28;20184;-69
2023/12/19 03:56:15;;;;;;;38.57;21.20;;;;;;;;;;5011641;28;20753;-69
2023/12/19 03:58:40;;;;;;;43.83;21.93;;;;;;;;;;5017252;28;20239;-69
2023/12/19 04:01:05;;;;;;;42.60;20.23;;;;;;;;;;5010693;28;20189;-68
2023/12/19 04:03:31;;;;;;;41.57;21.73;;;;;;;;;;5009884;28;20789;-69
2023/12/19 04:05:56;;;;;;;43.57;21.33;;;;;;;;;;5003317;28;20289;-69
2023/12/19 04:08:21;;;;;;;42.97;23.07;;;;;;;;;;5003873;28;20257;-68
2023/12/19 04:10:46;;;;;;;41.37;20.27;;;;;;;;;;5003741;28;20329;-68
2023/12/19 04:13:11;;;;;;;39.57;20.87;;;;;;;;;;5004572;28;20225;-67
2023/12/19 04:15:36;;;;;;;37.73;22.73;;;;;;;;;;5012289;28;20203;-68
2023/12/19 04:18:02;;;;;;;41.63;20.87;;;;;;;;;;5017590;28;20665;-67
2023/12/19 04:20:27;;;;;;;47.00;22.17;;;;;;;;;;5016709;28;20688;-68
2023/12/19 04:22:52;;;;;;;37.57;21.10;;;;;;;;;;5011962;28;20288;-69
2023/12/19 04:25:17;;;;;;;37.03;20.80;;;;;;;;;;5008749;28;20213;-68
2023/12/19 04:27:43;;;;;;;35.40;21.77;;;;;;;;;;5012098;28;20251;-69
2023/12/19 04:30:08;;;;;;;32.60;18.53;;;;;;;;;;5010235;28;20302;-68
2023/12/19 04:32:33;;;;;;;33.47;19.67;;;;;;;;;;5016808;28;20175;-67
2023/12/19 04:34:59;;;;;;;38.37;20.63;;;;;;;;;;5009379;28;20189;-67
2023/12/19 04:37:24;;;;;;;34.47;19.03;;;;;;;;;;5011672;28;20195;-68
2023/12/19 04:39:49;;;;;;;35.97;18.23;;;;;;;;;;5014247;28;20229;-68
2023/12/19 04:42:17;;;;;;;40.30;19.63;;;;;;;;;;5010813;28;20266;-68
2023/12/19 04:44:42;;;;;;;35.57;19.47;;;;;;;;;;5013234;28;20289;-68
2023/12/19 04:47:07;;;;;;;36.87;20.23;;;;;;;;;;5013989;28;20294;-68
2023/12/19 04:49:33;;;;;;;34.60;19.87;;;;;;;;;;5014766;28;20306;-69
2023/12/19 04:51:58;;;;;;;32.57;19.83;;;;;;;;;;5013854;28;20224;-68
2023/12/19 04:54:23;;;;;;;35.57;20.63;;;;;;;;;;5010519;28;20183;-68
2023/12/19 04:56:50;;;;;;;35.97;19.43;;;;;;;;;;5010475;28;20201;-68
2023/12/19 04:59:15;;;;;;;36.13;20.37;;;;;;;;;;5012543;28;20193;-68
2023/12/19 05:01:41;;;;;;;36.17;19.90;;;;;;;;;;5011665;28;20183;-67
2023/12/19 05:04:06;;;;;;;37.77;19.60;;;;;;;;;;5009455;28;20235;-69
2023/12/19 05:06:31;;;;;;;37.77;20.90;;;;;;;;;;5014439;28;20515;-69
2023/12/19 05:08:57;;;;;;;37.17;20.17;;;;;;;;;;5012948;28;20177;-69
2023/12/19 05:11:22;;;;;;;30.80;19.20;;;;;;;;;;5014350;28;20171;-69
2023/12/19 05:13:47;;;;;;;40.37;19.93;;;;;;;;;;5015675;28;20178;-70
2023/12/19 05:16:16;;;;;;;35.50;19.20;;;;;;;;;;5015315;28;20198;-68
2023/12/19 05:18:41;;;;;;;32.27;18.07;;;;;;;;;;5010706;28;20195;-68
2023/12/19 05:21:07;;;;;;;38.47;20.37;;;;;;;;;;5012063;28;20175;-69
2023/12/19 05:23:33;;;;;;;31.93;18.40;;;;;;;;;;5007750;28;20215;-69
2023/12/19 05:25:58;;;;;;;39.43;18.77;;;;;;;;;;5008890;28;20207;-68
2023/12/19 05:28:24;;;;;;;37.30;20.70;;;;;;;;;;5013077;28;20187;-70
2023/12/19 05:30:49;;;;;;;37.97;20.40;;;;;;;;;;5014358;28;20331;-69
2023/12/19 05:33:14;;;;;;;38.63;19.60;;;;;;;;;;5013939;28;20190;-68
2023/12/19 05:35:39;;;;;;;38.60;20.07;;;;;;;;;;5014365;28;20211;-69
2023/12/19 05:38:05;;;;;;;35.30;20.40;;;;;;;;;;5014464;28;20179;-68
2023/12/19 05:40:30;;;;;;;32.87;18.63;;;;;;;;;;5012206;28;20183;-69
2023/12/19 05:42:58;;;;;;;34.53;19.13;;;;;;;;;;5004017;28;20693;-69
2023/12/19 05:45:23;;;;;;;36.13;17.67;;;;;;;;;;5010333;28;20195;-69
2023/12/19 05:47:48;;;;;;;35.33;19.07;;;;;;;;;;5014375;28;20198;-68
2023/12/19 05:50:14;;;;;;;34.77;18.53;;;;;;;;;;5011643;28;20229;-69
2023/12/19 05:52:39;;;;;;;39.73;20.33;;;;;;;;;;5012899;28;20604;-69
2023/12/19 05:55:04;;;;;;;28.70;17.10;;;;;;;;;;5010327;28;20175;-69
2023/12/19 05:57:30;;;;;;;30.77;17.57;;;;;;;;;;5009557;28;20181;-69
2023/12/19 05:59:55;;;;;;;29.77;17.40;;;;;;;;;;5015394;28;20225;-69
2023/12/19 06:02:21;;;;;;;25.17;16.53;;;;;;;;;;5006844;28;20182;-69
2023/12/19 06:04:46;;;;;;;32.93;18.87;;;;;;;;;;5010056;28;20249;-69
2023/12/19 06:07:11;;;;;;;26.37;15.27;;;;;;;;;;5007615;28;20252;-68
2023/12/19 06:09:36;;;;;;;28.17;15.77;;;;;;;;;;5007407;28;20182;-70
2023/12/19 06:12:03;;;;;;;28.47;16.47;;;;;;;;;;5009324;28;20262;-68
2023/12/19 06:14:28;;;;;;;31.70;17.90;;;;;;;;;;5009465;28;20229;-68
2023/12/19 06:16:53;;;;;;;32.47;19.13;;;;;;;;;;5003621;28;20202;-69
2023/12/19 06:19:18;;;;;;;31.53;18.50;;;;;;;;;;5010721;28;20267;-68
2023/12/19 06:21:44;;;;;;;33.67;17.90;;;;;;;;;;5005062;28;20183;-68
2023/12/19 06:24:09;;;;;;;32.47;18.37;;;;;;;;;;5001411;28;20306;-69
2023/12/19 06:26:34;;;;;;;29.63;17.70;;;;;;;;;;5002106;28;20774;-69
2023/12/19 06:29:00;;;;;;;35.37;19.07;;;;;;;;;;5000435;28;20213;-68
2023/12/19 06:31:25;;;;;;;35.47;20.13;;;;;;;;;;5005289;28;20207;-69
2023/12/19 06:33:50;;;;;;;37.87;21.00;;;;;;;;;;5012958;28;20211;-70
2023/12/19 06:36:28;;;;;;;35.33;20.27;;;;;;;;;;5010478;28;20302;-70
2023/12/19 06:38:54;;;;;;;40.80;22.67;;;;;;;;;;5010498;28;20181;-70
2023/12/19 06:41:19;;;;;;;34.20;20.93;;;;;;;;;;5001938;28;20237;-69
2023/12/19 06:43:44;;;;;;;38.40;20.00;;;;;;;;;;4995402;28;20249;-69
2023/12/19 06:46:16;;;;;;;36.50;20.23;;;;;;;;;;5013853;22;20235;-67
2023/12/19 06:48:41;;;;;;;38.90;20.13;;;;;;;;;;4981526;28;20659;-68
2023/12/19 06:51:07;;;;;;;32.70;19.30;;;;;;;;;;4982210;28;20179;-67
2023/12/19 06:53:32;;;;;;;42.13;23.63;;;;;;;;;;4981971;28;20207;-67
2023/12/19 06:55:57;;;;;;;38.73;20.20;;;;;;;;;;4982071;28;21042;-68
2023/12/19 06:58:22;;;;;;;34.87;20.13;;;;;;;;;;4980215;28;20571;-67
2023/12/19 07:00:47;;;;;;;30.30;19.63;;;;;;;;;;4979979;28;20179;-68
2023/12/19 07:03:12;;;;;;;42.87;20.40;;;;;;;;;;4981560;28;20199;-70
2023/12/19 07:05:38;;;;;;;37.57;22.33;;;;;;;;;;4982661;28;20235;-68
2023/12/19 07:08:04;;;;;;;44.93;22.00;;;;;;;;;;4979877;28;20683;-67
2023/12/19 07:10:29;;;;;;;39.20;21.93;;;;;;;;;;4980525;28;20267;-66
2023/12/19 07:12:55;;;;;;;43.23;20.57;;;;;;;;;;4981178;28;20191;-66
2023/12/19 07:15:20;;;;;;;43.40;21.67;;;;;;;;;;4982377;28;20186;-67
2023/12/19 07:17:46;;;;;;;40.90;23.13;;;;;;;;;;4982025;28;20233;-67
2023/12/19 07:20:11;;;;;;;43.20;23.70;;;;;;;;;;4981834;28;20179;-68
2023/12/19 07:22:36;;;;;;;45.47;25.50;;;;;;;;;;4982017;28;20179;-69
2023/12/19 07:25:02;;;;;;;42.93;24.03;;;;;;;;;;4988859;28;20182;-68
2023/12/19 07:27:29;;;;;;;53.73;25.97;;;;;;;;;;4972130;28;20196;-69
2023/12/19 07:29:54;;;;;;;48.73;23.73;;;;;;;;;;4980169;28;20183;-68
2023/12/19 07:32:19;;;;;;;50.20;24.30;;;;;;;;;;4979727;28;21703;-69
2023/12/19 07:34:44;;;;;;;55.13;24.77;;;;;;;;;;4980686;28;20947;-68
2023/12/19 07:37:10;;;;;;;43.03;24.47;;;;;;;;;;4979995;28;20302;-69
2023/12/19 07:39:35;;;;;;;50.17;25.80;;;;;;;;;;4981752;28;20184;-68
2023/12/19 07:42:00;;;;;;;46.10;25.00;;;;;;;;;;4977117;28;20185;-68
2023/12/19 07:44:25;;;;;;;50.80;26.03;;;;;;;;;;4981157;28;20342;-69
2023/12/19 07:46:50;;;;;;;46.03;23.87;;;;;;;;;;4983560;28;20225;-69
2023/12/19 07:49:16;;;;;;;49.07;26.47;;;;;;;;;;4982922;28;20186;-68
2023/12/19 07:51:41;;;;;;;51.37;25.50;;;;;;;;;;4985668;28;20204;-68
2023/12/19 07:54:06;;;;;;;43.97;23.47;;;;;;;;;;4988664;28;20190;-69
2023/12/19 07:56:31;;;;;;;41.83;23.90;;;;;;;;;;4986447;28;20202;-69
2023/12/19 07:58:57;;;;;;;50.17;25.37;;;;;;;;;;4981395;28;20242;-69
2023/12/19 08:01:22;;;;;;;42.93;23.07;;;;;;;;;;4983941;28;20263;-69
2023/12/19 08:03:47;;;;;;;49.33;24.27;;;;;;;;;;4983203;28;20207;-68
2023/12/19 08:06:13;;;;;;;47.83;25.03;;;;;;;;;;4983559;28;20200;-69
2023/12/19 08:08:38;;;;;;;48.83;24.43;;;;;;;;;;4984576;28;20212;-68
2023/12/19 08:11:03;;;;;;;46.70;23.47;;;;;;;;;;4983694;28;20192;-69
2023/12/19 08:13:29;;;;;;;50.47;24.40;;;;;;;;;;4983625;28;20247;-68
2023/12/19 08:15:54;;;;;;;44.90;23.83;;;;;;;;;;4984793;28;20282;-69
2023/12/19 08:18:19;;;;;;;41.50;24.10;;;;;;;;;;4981725;28;20180;-69
2023/12/19 08:20:45;;;;;;;43.37;23.53;;;;;;;;;;4983859;28;20187;-68
2023/12/19 08:23:10;;;;;;;48.77;23.73;;;;;;;;;;4983950;28;20295;-68
2023/12/19 08:25:35;;;;;;;42.80;24.77;;;;;;;;;;4985251;28;20195;-68
2023/12/19 08:28:04;;;;;;;38.80;21.93;;;;;;;;;;4986086;28;20184;-69
2023/12/19 08:30:30;;;;;;;42.17;21.87;;;;;;;;;;4982934;28;20212;-68
2023/12/19 08:32:55;;;;;;;48.30;23.30;;;;;;;;;;4982782;28;20242;-68
2023/12/19 08:35:21;;;;;;;42.27;23.40;;;;;;;;;;4983513;28;20184;-68
2023/12/19 08:37:47;;;;;;;47.37;24.77;;;;;;;;;;4984923;28;20187;-67
2023/12/19 08:40:12;;;;;;;40.97;23.13;;;;;;;;;;4985123;28;20188;-68
2023/12/19 08:42:38;;;;;;;43.17;24.90;;;;;;;;;;4983952;28;20663;-69
2023/12/19 08:45:04;;;;;;;38.73;22.10;;;;;;;;;;4982831;28;20176;-68
2023/12/19 08:47:29;;;;;;;45.37;22.73;;;;;;;;;;4980539;28;20730;-67
2023/12/19 08:49:56;;;;;;;40.80;21.37;;;;;;;;;;4983983;28;20175;-67
2023/12/19 08:52:22;;;;;;;37.73;21.10;;;;;;;;;;4986210;28;20171;-67
2023/12/19 08:54:47;;;;;;;35.57;20.00;;;;;;;;;;4989149;28;20188;-68
2023/12/19 08:57:16;;;;;;;31.83;20.17;;;;;;;;;;4984789;28;21219;-68
2023/12/19 08:59:41;;;;;;;38.07;22.03;;;;;;;;;;4985618;28;20587;-67
2023/12/19 09:02:06;;;;;;;34.30;20.27;;;;;;;;;;4983755;28;20277;-67
2023/12/19 09:04:31;;;;;;;40.23;21.17;;;;;;;;;;4982977;28;20285;-68
2023/12/19 09:06:57;;;;;;;35.50;20.23;;;;;;;;;;4983875;28;20255;-68
2023/12/19 09:09:22;;;;;;;35.47;21.63;;;;;;;;;;4978013;28;20175;-68
2023/12/19 09:11:47;;;;;;;34.37;20.17;;;;;;;;;;4981449;28;21000;-69
2023/12/19 09:14:12;;;;;;;32.47;18.90;;;;;;;;;;4984564;28;20191;-69
2023/12/19 09:16:38;;;;;;;34.03;19.70;;;;;;;;;;4982528;28;20269;-69
2023/12/19 09:19:03;;;;;;;35.67;19.00;;;;;;;;;;4985299;28;20176;-68
2023/12/19 09:21:29;;;;;;;36.10;18.80;;;;;;;;;;4984364;28;21480;-69
2023/12/19 09:23:54;;;;;;;31.07;19.33;;;;;;;;;;4985695;28;20218;-67
2023/12/19 09:26:19;;;;;;;30.27;18.83;;;;;;;;;;4982071;28;20616;-69
2023/12/19 09:28:45;;;;;;;31.37;19.23;;;;;;;;;;4983346;28;20180;-68
2023/12/19 09:31:10;;;;;;;34.53;19.40;;;;;;;;;;4985363;28;20664;-68
2023/12/19 09:33:38;;;;;;;32.80;18.70;;;;;;;;;;4982849;28;20186;-69
2023/12/19 09:36:04;;;;;;;31.70;19.60;;;;;;;;;;4980806;28;20525;-69
2023/12/19 09:38:30;;;;;;;27.80;17.47;;;;;;;;;;4981246;28;20311;-68
2023/12/19 09:40:56;;;;;;;32.37;18.30;;;;;;;;;;4982152;28;20239;-68
2023/12/19 09:43:22;;;;;;;39.23;19.07;;;;;;;;;;4982896;28;20199;-68
2023/12/19 09:45:48;;;;;;;32.13;17.97;;;;;;;;;;4981942;28;20222;-68
2023/12/19 09:48:13;;;;;;;32.83;18.93;;;;;;;;;;4980593;28;20175;-69
2023/12/19 09:50:42;;;;;;;32.50;17.53;;;;;;;;;;4982044;28;20176;-68
2023/12/19 09:53:09;;;;;;;32.10;18.73;;;;;;;;;;4981906;28;20234;-69
2023/12/19 09:55:34;;;;;;;25.40;14.97;;;;;;;;;;4982456;28;20203;-69
2023/12/19 09:58:00;;;;;;;26.73;16.93;;;;;;;;;;4984383;28;20709;-69
2023/12/19 10:00:26;;;;;;;24.77;16.73;;;;;;;;;;4981338;28;20560;-68
2023/12/19 10:02:52;;;;;;;34.73;17.00;;;;;;;;;;4981174;28;20207;-68
2023/12/19 10:05:17;;;;;;;31.93;16.90;;;;;;;;;;4996357;28;20187;-69
2023/12/19 10:07:42;;;;;;;27.83;16.60;;;;;;;;;;4980544;28;20218;-68
2023/12/19 10:10:11;;;;;;;31.33;16.33;;;;;;;;;;4978671;28;20268;-68
2023/12/19 10:12:46;;;;;;;26.03;16.73;;;;;;;;;;4981251;28;20571;-69
2023/12/19 10:15:13;;;;;;;29.97;17.50;;;;;;;;;;4982701;28;20229;-68
2023/12/19 10:17:38;;;;;;;29.53;17.07;;;;;;;;;;4980075;28;20203;-68
2023/12/19 10:20:10;;;;;;;27.33;16.90;;;;;;;;;;4981245;28;20191;-69
2023/12/19 10:22:35;;;;;;;28.90;16.60;;;;;;;;;;4981801;28;20179;-68
2023/12/19 10:25:01;;;;;;;32.27;17.03;;;;;;;;;;4979965;28;20667;-69
2023/12/19 10:27:26;;;;;;;29.37;16.37;;;;;;;;;;4981306;28;20235;-69
2023/12/19 10:29:51;;;;;;;27.10;16.17;;;;;;;;;;4980009;28;20183;-69
2023/12/19 10:32:20;;;;;;;26.83;16.17;;;;;;;;;;4981143;28;20263;-68
2023/12/19 10:34:55;;;;;;;30.33;17.23;;;;;;;;;;4978797;28;20187;-68
2023/12/19 10:37:20;;;;;;;26.83;16.33;;;;;;;;;;4978045;28;20298;-69
2023/12/19 10:39:47;;;;;;;27.27;15.43;;;;;;;;;;4978428;28;20192;-69
2023/12/19 10:42:12;;;;;;;31.27;18.40;;;;;;;;;;4980043;28;20191;-67
2023/12/19 10:44:41;;;;;;;28.80;15.30;;;;;;;;;;4981855;28;20564;-68
2023/12/19 10:47:10;;;;;;;26.67;14.90;;;;;;;;;;4981891;28;20234;-67
2023/12/19 10:49:35;;;;;;;23.87;15.83;;;;;;;;;;4979156;28;20178;-69
2023/12/19 10:52:04;;;;;;;27.77;16.37;;;;;;;;;;4980572;28;20179;-69
2023/12/19 10:54:30;;;;;;;27.77;15.10;;;;;;;;;;4981256;28;20184;-69
2023/12/19 10:56:55;;;;;;;23.00;15.50;;;;;;;;;;4979620;28;20213;-68
2023/12/19 10:59:27;;;;;;;22.47;14.60;;;;;;;;;;4986753;28;20266;-69
2023/12/19 11:01:56;;;;;;;24.67;15.03;;;;;;;;;;4980539;28;20199;-68
2023/12/19 11:04:22;;;;;;;21.83;13.37;;;;;;;;;;4986907;28;20231;-67
2023/12/19 11:06:49;;;;;;;22.07;14.53;;;;;;;;;;4981208;28;20215;-69
2023/12/19 11:09:17;;;;;;;25.87;15.60;;;;;;;;;;4980117;28;20302;-67
2023/12/19 11:11:42;;;;;;;23.23;13.83;;;;;;;;;;4979447;28;20840;-68
2023/12/19 11:14:07;;;;;;;21.03;13.70;;;;;;;;;;4986656;28;20183;-68
2023/12/19 11:16:48;;;;;;;23.73;12.60;;;;;;;;;;4981879;28;20203;-67
2023/12/19 11:19:18;;;;;;;25.63;13.63;;;;;;;;;;4982459;28;20544;-68
2023/12/19 11:21:44;;;;;;;22.97;13.47;;;;;;;;;;4983082;28;20498;-68
2023/12/19 11:24:12;;;;;;;23.63;12.87;;;;;;;;;;4984255;28;20254;-69
2023/12/19 11:26:40;;;;;;;20.87;12.07;;;;;;;;;;4986065;28;20683;-68
2023/12/19 11:29:05;;;;;;;18.17;11.77;;;;;;;;;;4985351;28;20647;-68
2023/12/19 11:31:31;;;;;;;17.53;13.03;;;;;;;;;;4985655;28;20238;-68
2023/12/19 11:33:59;;;;;;;21.50;12.57;;;;;;;;;;4985687;28;20187;-68
2023/12/19 11:36:24;;;;;;;16.53;11.03;;;;;;;;;;4985154;28;20215;-67
2023/12/19 11:38:49;;;;;;;19.70;12.00;;;;;;;;;;4985455;28;20187;-68
2023/12/19 11:41:34;;;;;;;20.53;12.27;;;;;;;;;;4983176;28;20215;-68
2023/12/19 11:44:00;;;;;;;16.40;10.80;;;;;;;;;;4985681;28;20324;-68
2023/12/19 11:46:26;;;;;;;15.90;10.67;;;;;;;;;;4983016;28;20706;-69
2023/12/19 11:48:52;;;;;;;15.73;9.83;;;;;;;;;;4983734;28;22310;-68
2023/12/19 11:51:36;;;;;;;16.63;10.90;;;;;;;;;;4981406;28;20180;-66
2023/12/19 11:54:01;;;;;;;18.07;10.80;;;;;;;;;;4982813;28;20227;-68
2023/12/19 11:56:26;;;;;;;19.27;11.57;;;;;;;;;;4985324;28;20196;-67
2023/12/19 11:58:51;;;;;;;18.67;11.00;;;;;;;;;;4986482;28;21426;-66
2023/12/19 12:01:19;;;;;;;14.90;10.30;;;;;;;;;;4987504;28;20184;-67
2023/12/19 12:03:44;;;;;;;17.33;10.67;;;;;;;;;;4982336;28;20750;-67
2023/12/19 12:06:10;;;;;;;18.53;11.90;;;;;;;;;;4983265;28;20283;-68
2023/12/19 12:08:35;;;;;;;17.60;11.07;;;;;;;;;;4985332;28;20317;-68
2023/12/19 12:11:01;;;;;;;16.47;11.33;;;;;;;;;;4985121;28;20241;-68
2023/12/19 12:13:27;;;;;;;21.00;10.13;;;;;;;;;;4982416;28;20610;-68
2023/12/19 12:15:53;;;;;;;16.73;8.87;;;;;;;;;;4986579;28;20199;-68
2023/12/19 12:18:19;;;;;;;16.90;9.53;;;;;;;;;;4985112;28;20187;-67
2023/12/19 12:20:44;;;;;;;15.27;8.80;;;;;;;;;;4984642;28;20253;-68
2023/12/19 12:23:09;;;;;;;16.00;9.37;;;;;;;;;;4984897;28;20236;-67
2023/12/19 12:25:34;;;;;;;15.83;10.57;;;;;;;;;;4984956;28;20207;-68
2023/12/19 12:28:09;;;;;;;15.97;9.77;;;;;;;;;;4980883;28;20660;-68
2023/12/19 12:30:34;;;;;;;16.33;9.93;;;;;;;;;;4983149;28;20179;-68
2023/12/19 12:33:01;;;;;;;14.20;9.47;;;;;;;;;;4983510;28;20864;-67
2023/12/19 12:35:28;;;;;;;15.00;9.40;;;;;;;;;;4984250;28;20476;-69
2023/12/19 12:37:56;;;;;;;12.80;9.00;;;;;;;;;;4985014;28;20187;-69
2023/12/19 12:40:21;;;;;;;15.27;9.07;;;;;;;;;;4983958;28;20242;-68
2023/12/19 12:42:47;;;;;;;12.47;8.77;;;;;;;;;;4984746;28;20270;-68
2023/12/19 12:45:15;;;;;;;12.73;8.70;;;;;;;;;;4984072;28;20176;-67
2023/12/19 12:47:41;;;;;;;13.43;8.97;;;;;;;;;;5029266;23;20238;-71
2023/12/19 12:50:07;;;;;;;11.80;8.10;;;;;;;;;;5014403;28;20182;-71
2023/12/19 12:52:32;;;;;;;13.67;8.47;;;;;;;;;;5008244;28;20185;-72
2023/12/19 12:55:01;;;;;;;12.77;8.17;;;;;;;;;;5014258;28;20243;-73
2023/12/19 12:57:26;;;;;;;11.73;8.07;;;;;;;;;;5009204;28;20682;-71
2023/12/19 12:59:52;;;;;;;12.10;8.20;;;;;;;;;;5014011;28;20221;-70
2023/12/19 13:02:17;;;;;;;11.57;7.87;;;;;;;;;;5007909;28;20186;-71
2023/12/19 13:04:42;;;;;;;17.13;7.67;;;;;;;;;;5002104;28;20284;-71
2023/12/19 13:07:07;;;;;;;12.53;7.57;;;;;;;;;;5001992;28;20614;-72
2023/12/19 13:09:32;;;;;;;10.87;7.80;;;;;;;;;;5012625;28;20182;-72
2023/12/19 13:12:00;;;;;;;13.47;8.37;;;;;;;;;;5009592;28;20198;-71
2023/12/19 13:14:25;;;;;;;11.20;7.00;;;;;;;;;;5012069;28;20231;-71
2023/12/19 13:16:51;;;;;;;11.90;7.27;;;;;;;;;;5012103;28;20198;-71
2023/12/19 13:19:18;;;;;;;11.77;7.53;;;;;;;;;;5012650;28;20178;-71
2023/12/19 13:21:43;;;;;;;11.07;7.07;;;;;;;;;;5012518;28;20693;-71
2023/12/19 13:24:09;;;;;;;9.40;7.37;;;;;;;;;;5004622;28;20199;-71
2023/12/19 13:26:34;;;;;;;13.13;8.17;;;;;;;;;;5012753;28;20183;-71
2023/12/19 13:29:01;;;;;;;9.87;7.30;;;;;;;;;;5014620;28;20206;-71
2023/12/19 13:31:28;;;;;;;12.57;7.80;;;;;;;;;;5008730;28;20240;-72
2023/12/19 13:33:54;;;;;;;11.53;8.20;;;;;;;;;;5007761;28;20253;-72
2023/12/19 13:36:21;;;;;;;10.27;7.27;;;;;;;;;;5006465;28;20273;-72
2023/12/19 13:38:47;;;;;;;12.03;7.43;;;;;;;;;;5011670;28;20270;-72
2023/12/19 13:41:13;;;;;;;11.63;7.83;;;;;;;;;;5010552;28;20257;-73
2023/12/19 13:43:38;;;;;;;10.73;7.83;;;;;;;;;;5023912;28;20198;-71
2023/12/19 13:46:04;;;;;;;14.70;8.23;;;;;;;;;;5013111;28;20201;-72
2023/12/19 13:48:30;;;;;;;11.27;8.60;;;;;;;;;;5013863;28;20177;-71
2023/12/19 13:50:56;;;;;;;13.73;8.30;;;;;;;;;;5014788;28;20183;-71
2023/12/19 13:53:21;;;;;;;10.83;7.73;;;;;;;;;;5013656;28;20281;-71
2023/12/19 13:55:46;;;;;;;11.77;7.27;;;;;;;;;;5009807;28;20582;-72
2023/12/19 13:58:12;;;;;;;10.43;7.33;;;;;;;;;;5013068;28;20236;-71
2023/12/19 14:00:37;;;;;;;10.97;7.60;;;;;;;;;;5007970;28;20186;-71
2023/12/19 14:03:04;;;;;;;8.63;6.37;;;;;;;;;;5014003;28;20962;-70
2023/12/19 14:05:29;;;;;;;12.47;7.93;;;;;;;;;;5015749;28;20188;-71
2023/12/19 14:07:55;;;;;;;10.97;7.17;;;;;;;;;;5008560;28;20300;-71
2023/12/19 14:10:20;;;;;;;11.90;7.07;;;;;;;;;;5013432;28;20773;-72